Airport View

Enter AWOS ICAO identifier for current METAR.

ex. KFNL

KAFP 181200Z AUTO 00000KT 10SM CLR 02/M04 A3054 RMK AO2 T00201039

18 Jan 2020 12:03

Frequency: 119.325

Phone: 704-695-0623

Other Area AWOS: KRCZ - KCQW - KVUJ - KEQY

TAF KCLT 181130Z 1812/1918 14006KT P6SM SCT045 OVC100 FM181400 17006KT P6SM SCT025 BKN045 TEMPO 1816/1820 6SM -RA BR SCT015 OVC025 FM182000 19007KT 5SM -RA BR OVC007 FM190300 21009G17KT 4SM -RA BR OVC005 PROB30 1903/1906 1SM -RA BR OVC003 FM190600 21009G19KT 3SM BR OVC004 WS020/25040KT FM191000 24007KT 5SM BR BKN016 FM191300 29005KT P6SM SCT100